createdAt,value
2022-07-27T00:03:42.403Z,100.00
2022-07-27T00:09:11.725Z,100.00
2022-07-27T00:14:43.156Z,100.00
2022-07-27T00:20:13.219Z,100.00
2022-07-27T00:25:42.448Z,100.00
2022-07-27T00:31:13.119Z,100.00
2022-07-27T00:36:42.250Z,100.00
2022-07-27T00:42:08.882Z,100.00
2022-07-27T00:47:35.514Z,100.00
2022-07-27T00:53:06.052Z,100.00
2022-07-27T00:58:30.868Z,100.00
2022-07-27T01:04:00.445Z,100.00
2022-07-27T01:09:44.588Z,100.00
2022-07-27T01:15:13.948Z,100.00
2022-07-27T01:20:42.650Z,100.00
2022-07-27T01:26:12.803Z,100.00
2022-07-27T01:31:41.808Z,100.00
2022-07-27T01:37:10.500Z,100.00
2022-07-27T01:42:40.731Z,100.00
2022-07-27T01:48:10.789Z,100.00
2022-07-27T01:53:39.442Z,100.00
2022-07-27T01:59:16.813Z,100.00
2022-07-27T02:04:41.729Z,100.00
2022-07-27T02:10:11.132Z,100.00
2022-07-27T02:15:43.136Z,100.00
2022-07-27T02:21:13.628Z,100.00
2022-07-27T02:26:43.032Z,100.00
2022-07-27T02:32:11.121Z,100.00
2022-07-27T02:37:40.761Z,100.00
2022-07-27T02:43:09.341Z,100.00
2022-07-27T02:48:40.127Z,100.00
2022-07-27T02:54:09.431Z,100.00
2022-07-27T02:59:39.821Z,100.00
2022-07-27T03:05:05.646Z,100.00
2022-07-27T03:10:34.233Z,100.00
2022-07-27T03:15:58.270Z,100.00
2022-07-27T03:21:28.655Z,100.00
2022-07-27T03:26:57.688Z,100.00
2022-07-27T03:32:23.058Z,100.00
2022-07-27T03:37:53.758Z,100.00
2022-07-27T03:43:16.987Z,100.00
2022-07-27T03:48:40.998Z,100.00
2022-07-27T03:54:06.610Z,100.00
2022-07-27T03:59:32.461Z,100.00
2022-07-27T04:04:56.341Z,100.00
2022-07-27T04:10:31.568Z,100.00
2022-07-27T04:15:57.915Z,100.00
2022-07-27T04:21:28.227Z,100.00
2022-07-27T04:27:05.040Z,100.00
2022-07-27T04:32:34.360Z,100.00
2022-07-27T04:38:03.098Z,100.00
2022-07-27T04:43:33.491Z,100.00
2022-07-27T04:49:02.449Z,100.00
2022-07-27T04:54:31.480Z,100.00
2022-07-27T05:00:01.517Z,100.00
2022-07-27T05:05:30.701Z,100.00
2022-07-27T05:10:58.989Z,100.00
2022-07-27T05:16:30.508Z,100.00
2022-07-27T05:21:59.450Z,100.00
2022-07-27T05:27:28.702Z,100.00
2022-07-27T05:32:55.869Z,100.00
2022-07-27T05:38:23.902Z,98.43
2022-07-27T05:43:55.504Z,96.16
2022-07-27T05:49:22.693Z,94.02
2022-07-27T05:54:51.193Z,91.83
2022-07-27T06:00:20.741Z,92.19
2022-07-27T06:05:51.257Z,91.69
2022-07-27T06:11:20.087Z,90.58
2022-07-27T06:16:49.590Z,89.43
2022-07-27T06:22:19.607Z,87.56
2022-07-27T06:27:48.980Z,85.80
2022-07-27T06:33:18.430Z,84.75
2022-07-27T06:38:43.614Z,83.91
2022-07-27T06:44:12.174Z,83.09
2022-07-27T06:49:35.909Z,82.50
2022-07-27T06:55:01.090Z,78.06
2022-07-27T07:00:29.060Z,73.20
2022-07-27T07:05:54.891Z,62.38
2022-07-27T07:11:21.104Z,50.79
2022-07-27T07:16:50.717Z,44.62
2022-07-27T07:22:14.538Z,41.01
2022-07-27T07:27:44.733Z,37.79
2022-07-27T07:33:14.250Z,36.83
2022-07-27T07:38:41.655Z,35.59
2022-07-27T07:44:11.296Z,34.42
2022-07-27T07:49:39.880Z,33.99
2022-07-27T07:55:10.340Z,32.34
2022-07-27T08:00:44.199Z,32.42
2022-07-27T08:06:13.513Z,31.39
2022-07-27T08:11:42.600Z,31.43
2022-07-27T08:17:12.908Z,30.78
2022-07-27T08:22:37.182Z,31.07
2022-07-27T08:28:04.820Z,31.56
2022-07-27T08:33:33.786Z,34.58
2022-07-27T08:39:08.737Z,34.12
2022-07-27T08:44:41.018Z,32.94
2022-07-27T08:50:24.382Z,32.71
2022-07-27T08:55:53.730Z,32.53
2022-07-27T09:01:23.539Z,31.28
2022-07-27T09:06:53.344Z,29.98
2022-07-27T09:12:28.883Z,30.07
2022-07-27T09:17:53.062Z,29.56
2022-07-27T09:23:28.495Z,29.23
2022-07-27T09:28:55.927Z,30.64
2022-07-27T09:34:30.493Z,31.96
2022-07-27T09:40:25.475Z,30.59
2022-07-27T09:45:51.342Z,28.69
2022-07-27T09:51:58.373Z,28.55
2022-07-27T09:57:09.636Z,30.90
2022-07-27T10:02:38.846Z,32.19
2022-07-27T10:08:09.016Z,31.19
2022-07-27T10:13:43.587Z,29.21
2022-07-27T10:19:17.272Z,28.82
2022-07-27T10:24:59.980Z,27.88
2022-07-27T10:30:30.761Z,27.51
2022-07-27T10:35:54.330Z,28.46
2022-07-27T10:41:26.286Z,28.86
2022-07-27T10:46:54.763Z,28.97
2022-07-27T10:52:42.034Z,28.91
2022-07-27T10:58:46.298Z,28.80
2022-07-27T11:04:14.869Z,29.53
2022-07-27T11:15:27.601Z,30.61
2022-07-27T11:20:52.465Z,31.87
2022-07-27T11:26:17.139Z,30.95
2022-07-27T11:31:58.301Z,32.09
2022-07-27T11:37:29.541Z,35.42
2022-07-27T11:42:56.953Z,36.27
2022-07-27T11:48:35.015Z,36.72
2022-07-27T11:54:21.982Z,35.61
2022-07-27T11:59:46.701Z,35.13
2022-07-27T12:05:12.339Z,33.77
2022-07-27T12:10:58.258Z,32.35
2022-07-27T12:16:27.474Z,32.15
2022-07-27T12:21:55.728Z,31.99
2022-07-27T12:27:27.529Z,30.75
2022-07-27T12:32:56.370Z,30.50
2022-07-27T12:38:25.733Z,30.05
2022-07-27T12:44:07.878Z,30.14
2022-07-27T12:49:40.819Z,29.61
2022-07-27T12:55:15.707Z,29.28
2022-07-27T13:00:42.597Z,29.51
2022-07-27T13:06:13.166Z,29.14
2022-07-27T13:11:46.202Z,29.95
2022-07-27T13:17:18.756Z,29.14
2022-07-27T13:22:48.571Z,28.74
2022-07-27T13:28:17.022Z,28.25
2022-07-27T13:33:46.732Z,28.53
2022-07-27T13:39:16.369Z,28.26
2022-07-27T13:45:03.883Z,26.99
2022-07-27T13:50:32.612Z,27.45
2022-07-27T13:56:03.082Z,27.52
2022-07-27T14:01:29.304Z,27.62
2022-07-27T14:07:00.364Z,27.45
2022-07-27T14:12:25.022Z,27.89
2022-07-27T14:17:54.704Z,27.66
2022-07-27T14:23:29.806Z,28.54
2022-07-27T14:28:56.822Z,27.77
2022-07-27T14:34:19.151Z,28.64
2022-07-27T14:39:49.894Z,29.45
2022-07-27T14:45:16.514Z,29.77
2022-07-27T14:50:40.230Z,29.14
2022-07-27T14:56:05.674Z,29.83
2022-07-27T15:01:35.405Z,29.80
2022-07-27T15:06:59.907Z,30.50
2022-07-27T15:12:26.725Z,29.99
2022-07-27T15:17:56.793Z,30.86
2022-07-27T15:23:26.598Z,30.73
2022-07-27T15:28:56.653Z,31.75
2022-07-27T15:34:25.229Z,32.09
2022-07-27T15:39:47.981Z,31.74
2022-07-27T15:45:18.882Z,32.32
2022-07-27T15:50:45.612Z,32.90
2022-07-27T15:56:14.153Z,34.15
2022-07-27T16:01:45.052Z,35.54
2022-07-27T16:07:11.265Z,35.83
2022-07-27T16:12:41.733Z,36.32
2022-07-27T16:18:11.844Z,36.81
2022-07-27T16:23:42.093Z,37.63
2022-07-27T16:29:08.895Z,37.92
2022-07-27T16:34:40.092Z,38.54
2022-07-27T16:40:10.377Z,39.04
2022-07-27T16:45:34.069Z,40.05
2022-07-27T16:51:05.083Z,40.66
2022-07-27T16:56:30.031Z,41.18
2022-07-27T17:01:59.288Z,41.65
2022-07-27T17:07:30.205Z,41.91
2022-07-27T17:13:00.131Z,42.62
2022-07-27T17:18:24.210Z,43.01
2022-07-27T17:23:49.479Z,43.69
2022-07-27T17:29:18.323Z,44.11
2022-07-27T17:34:47.980Z,44.93
2022-07-27T17:40:16.047Z,45.45
2022-07-27T17:45:45.469Z,46.27
2022-07-27T17:51:14.394Z,46.73
2022-07-27T17:56:45.173Z,47.33
2022-07-27T18:02:09.697Z,49.08
2022-07-27T18:07:40.310Z,49.67
2022-07-27T18:13:11.475Z,50.34
2022-07-27T18:18:42.537Z,51.52
2022-07-27T18:24:10.519Z,52.05
2022-07-27T18:29:36.273Z,52.16
2022-07-27T18:35:03.502Z,53.36
2022-07-27T18:40:33.236Z,54.11
2022-07-27T18:46:04.996Z,54.21
2022-07-27T18:51:34.477Z,55.18
2022-07-27T18:57:01.706Z,55.99
2022-07-27T19:02:28.048Z,56.34
2022-07-27T19:07:59.217Z,56.75
2022-07-27T19:13:27.325Z,57.55
2022-07-27T19:18:57.732Z,62.23
2022-07-27T19:24:26.421Z,62.41
2022-07-27T19:29:56.558Z,63.61
2022-07-27T19:35:21.511Z,62.36
2022-07-27T19:40:50.228Z,63.05
2022-07-27T19:46:20.237Z,64.50
2022-07-27T19:51:45.880Z,64.85
2022-07-27T19:57:15.475Z,65.49
2022-07-27T20:02:45.206Z,67.03
2022-07-27T20:08:13.178Z,66.56
2022-07-27T20:13:36.791Z,66.86
2022-07-27T20:19:01.816Z,67.23
2022-07-27T20:24:27.723Z,68.02
2022-07-27T20:29:50.841Z,68.39
2022-07-27T20:35:20.337Z,70.34
2022-07-27T20:40:50.711Z,70.99
2022-07-27T20:46:20.189Z,70.53
2022-07-27T20:51:43.865Z,71.36
2022-07-27T20:57:12.847Z,72.41
2022-07-27T21:02:36.649Z,73.18
2022-07-27T21:08:07.165Z,73.50
2022-07-27T21:13:35.861Z,73.51
2022-07-27T21:19:01.847Z,75.62
2022-07-27T21:24:29.976Z,75.20
2022-07-27T21:30:00.345Z,75.29
2022-07-27T21:35:25.709Z,75.83
2022-07-27T21:40:52.752Z,75.24
2022-07-27T21:46:20.830Z,74.44
2022-07-27T21:51:50.323Z,76.01
2022-07-27T21:57:18.871Z,77.25
2022-07-27T22:02:50.246Z,78.16
2022-07-27T22:08:19.101Z,78.41
2022-07-27T22:13:48.475Z,79.81
2022-07-27T22:19:18.433Z,81.61
2022-07-27T22:24:47.326Z,82.08
2022-07-27T22:30:16.859Z,82.32
2022-07-27T22:35:47.508Z,83.55
2022-07-27T22:41:16.256Z,85.16
2022-07-27T22:46:45.134Z,85.95
2022-07-27T22:52:15.680Z,86.88
2022-07-27T22:57:45.383Z,87.14
2022-07-27T23:03:14.470Z,87.36
2022-07-27T23:08:44.622Z,87.56
2022-07-27T23:14:14.729Z,86.83
2022-07-27T23:19:44.248Z,86.95
2022-07-27T23:25:14.702Z,86.86
2022-07-27T23:30:44.813Z,85.98
2022-07-27T23:36:14.061Z,86.28
2022-07-27T23:41:49.375Z,86.85
2022-07-27T23:47:19.304Z,87.71
2022-07-27T23:52:47.997Z,88.16
2022-07-27T23:58:18.461Z,88.20
